createdAt,value
2023-11-21T06:00:44.274Z,99.99
2023-11-21T06:01:44.230Z,99.99
2023-11-21T06:02:44.252Z,99.99
2023-11-21T06:03:44.249Z,99.99
2023-11-21T06:04:44.374Z,99.99
2023-11-21T06:05:44.176Z,99.99
2023-11-21T06:06:44.165Z,99.99
2023-11-21T06:07:44.141Z,99.99
2023-11-21T06:08:44.131Z,99.99
2023-11-21T06:09:44.127Z,99.99
2023-11-21T06:10:44.179Z,99.99
2023-11-21T06:11:49.141Z,99.99
2023-11-21T06:12:44.497Z,99.99
2023-11-21T06:13:44.088Z,99.99
2023-11-21T06:14:44.074Z,99.99
2023-11-21T06:15:44.044Z,99.99
2023-11-21T06:16:44.210Z,99.99
2023-11-21T06:17:44.161Z,99.99
2023-11-21T06:18:44.017Z,99.99
2023-11-21T06:19:44.051Z,99.99
2023-11-21T06:20:44.007Z,99.99
2023-11-21T06:21:43.974Z,99.99
2023-11-21T06:22:49.053Z,99.99
2023-11-21T06:23:43.963Z,99.99
2023-11-21T06:24:43.953Z,99.99
2023-11-21T06:25:44.004Z,99.99
2023-11-21T06:26:43.918Z,99.99
2023-11-21T06:27:43.906Z,99.99
2023-11-21T06:28:43.935Z,99.99
2023-11-21T06:29:43.897Z,99.99
2023-11-21T06:30:43.879Z,99.99
2023-11-21T06:31:43.930Z,99.99
2023-11-21T06:32:43.892Z,99.99
2023-11-21T06:33:48.899Z,99.99
2023-11-21T06:34:43.984Z,99.99
2023-11-21T06:35:43.818Z,99.99
2023-11-21T06:36:43.804Z,99.99
2023-11-21T06:37:43.834Z,99.99
2023-11-21T06:38:43.792Z,99.99
2023-11-21T06:39:43.768Z,99.99
2023-11-21T06:40:43.794Z,99.99
2023-11-21T06:41:43.754Z,99.99
2023-11-21T06:42:43.746Z,99.99
2023-11-21T06:43:43.739Z,99.99
2023-11-21T06:44:48.738Z,99.99
2023-11-21T06:45:43.707Z,99.99
2023-11-21T06:46:43.950Z,99.99
2023-11-21T06:47:43.899Z,99.99
2023-11-21T06:48:43.719Z,99.99
2023-11-21T06:49:43.702Z,99.99
2023-11-21T06:50:43.645Z,99.99
2023-11-21T06:51:43.690Z,99.99
2023-11-21T06:52:43.652Z,99.99
2023-11-21T06:53:43.618Z,99.99
2023-11-21T06:54:43.611Z,99.99
2023-11-21T06:55:48.678Z,99.99
2023-11-21T06:56:43.595Z,99.99
2023-11-21T06:57:43.569Z,99.99
2023-11-21T06:58:43.621Z,99.99
2023-11-21T06:59:43.579Z,99.99
2023-11-21T07:00:43.548Z,99.99
2023-11-21T07:01:43.566Z,99.99
2023-11-21T07:02:43.633Z,99.99
2023-11-21T07:03:43.618Z,99.99
2023-11-21T07:04:43.547Z,99.99
2023-11-21T07:05:43.513Z,99.99
2023-11-21T07:06:48.499Z,99.99
2023-11-21T07:07:43.492Z,99.99
2023-11-21T07:08:43.441Z,99.99
2023-11-21T07:09:43.438Z,99.99
2023-11-21T07:10:43.461Z,99.99
2023-11-21T07:11:44.209Z,99.99
2023-11-21T07:12:43.401Z,99.99
2023-11-21T07:13:43.402Z,99.99
2023-11-21T07:14:43.370Z,99.99
2023-11-21T07:15:43.389Z,99.99
2023-11-21T07:16:43.372Z,99.99
2023-11-21T07:17:48.392Z,99.99
2023-11-21T07:18:43.323Z,99.99
2023-11-21T07:19:43.355Z,99.99
2023-11-21T07:20:43.348Z,99.99
2023-11-21T07:21:43.309Z,99.99
2023-11-21T07:22:43.315Z,99.99
2023-11-21T07:23:43.277Z,99.99
2023-11-21T07:24:43.274Z,99.99
2023-11-21T07:25:43.289Z,99.99
2023-11-21T07:26:43.240Z,99.99
2023-11-21T07:27:43.229Z,99.99
2023-11-21T07:28:48.256Z,99.99
2023-11-21T07:29:43.215Z,99.99
2023-11-21T07:30:43.187Z,99.99
2023-11-21T07:31:43.273Z,99.99
2023-11-21T07:32:43.327Z,99.99
2023-11-21T07:33:43.154Z,99.99
2023-11-21T07:34:43.195Z,99.99
2023-11-21T07:35:43.146Z,99.99
2023-11-21T07:36:43.141Z,99.99
2023-11-21T07:37:43.145Z,99.99
2023-11-21T07:38:43.110Z,99.99
2023-11-21T07:39:48.136Z,99.99
2023-11-21T07:40:43.094Z,99.99
2023-11-21T07:41:43.068Z,99.99
2023-11-21T07:42:43.054Z,99.99
2023-11-21T07:43:43.117Z,99.99
2023-11-21T07:44:43.029Z,99.99
2023-11-21T07:45:45.478Z,99.99
2023-11-21T07:46:43.142Z,99.99
2023-11-21T07:47:43.074Z,99.99
2023-11-21T07:48:43.007Z,99.99
2023-11-21T07:49:43.007Z,99.99
2023-11-21T07:50:47.982Z,99.99
2023-11-21T07:51:42.951Z,99.99
2023-11-21T07:52:43.064Z,99.99
2023-11-21T07:53:42.967Z,99.99
2023-11-21T07:54:42.938Z,99.99
2023-11-21T07:55:42.934Z,99.99
2023-11-21T07:56:42.902Z,99.99
2023-11-21T07:57:42.919Z,99.99
2023-11-21T07:58:42.922Z,99.99
2023-11-21T07:59:42.879Z,99.99
2023-11-21T08:00:42.860Z,99.99
2023-11-21T08:01:47.915Z,99.99
2023-11-21T08:02:42.897Z,99.99
2023-11-21T08:03:42.950Z,99.99
2023-11-21T08:04:42.891Z,99.99
2023-11-21T08:05:42.839Z,99.99
2023-11-21T08:06:43.139Z,99.99
2023-11-21T08:07:42.834Z,99.99
2023-11-21T08:08:42.780Z,99.99
2023-11-21T08:09:42.797Z,99.99
2023-11-21T08:10:42.745Z,99.99
2023-11-21T08:11:42.765Z,99.99
2023-11-21T08:12:47.763Z,99.99
2023-11-21T08:13:42.704Z,99.99
2023-11-21T08:14:42.689Z,99.99
2023-11-21T08:15:42.771Z,99.99
2023-11-21T08:16:42.736Z,99.99
2023-11-21T08:17:42.695Z,99.99
2023-11-21T08:18:42.661Z,99.99
2023-11-21T08:19:42.705Z,99.99
2023-11-21T08:20:42.704Z,99.99
2023-11-21T08:21:42.661Z,99.99
2023-11-21T08:22:42.639Z,99.99
2023-11-21T08:23:47.634Z,99.99
2023-11-21T08:24:42.577Z,99.99
2023-11-21T08:25:42.605Z,99.99
2023-11-21T08:26:42.570Z,99.99
2023-11-21T08:27:42.548Z,99.99
2023-11-21T08:28:42.550Z,99.99
2023-11-21T08:29:42.528Z,99.99
2023-11-21T08:30:42.516Z,99.99
2023-11-21T08:31:42.545Z,99.99
2023-11-21T08:32:42.509Z,99.99
2023-11-21T08:33:42.482Z,99.99
2023-11-21T08:34:49.640Z,99.99
2023-11-21T08:35:42.527Z,99.99
2023-11-21T08:36:42.468Z,99.99
2023-11-21T08:37:42.506Z,99.99
2023-11-21T08:38:42.420Z,99.99
2023-11-21T08:39:42.431Z,99.99
2023-11-21T08:40:42.459Z,99.99
2023-11-21T08:41:42.387Z,99.99
2023-11-21T08:42:42.375Z,99.99
2023-11-21T08:43:42.465Z,99.99
2023-11-21T08:44:42.350Z,99.99
2023-11-21T08:45:47.454Z,99.99
2023-11-21T08:46:42.372Z,99.99
2023-11-21T08:47:42.345Z,99.99
2023-11-21T08:48:42.336Z,99.99
2023-11-21T08:49:42.320Z,99.99
2023-11-21T08:50:42.295Z,99.99
2023-11-21T08:51:42.271Z,99.99
2023-11-21T08:52:42.279Z,99.99
2023-11-21T08:53:42.253Z,99.99
2023-11-21T08:54:42.264Z,99.99
2023-11-21T08:55:42.284Z,99.99
2023-11-21T08:56:47.240Z,99.99
2023-11-21T08:57:42.200Z,99.99
2023-11-21T08:58:42.217Z,99.99
2023-11-21T08:59:42.208Z,99.99
2023-11-21T09:00:42.171Z,99.99
2023-11-21T09:01:42.273Z,99.99
2023-11-21T09:02:42.196Z,99.99
2023-11-21T09:03:42.196Z,99.99
2023-11-21T09:04:43.436Z,99.99
2023-11-21T09:05:42.110Z,99.99
2023-11-21T09:06:42.105Z,99.99
2023-11-21T09:07:47.223Z,99.99
2023-11-21T09:08:42.082Z,99.99
2023-11-21T09:09:42.079Z,99.99
2023-11-21T09:10:42.136Z,99.99
2023-11-21T09:11:42.065Z,99.99
2023-11-21T09:12:42.035Z,99.99
2023-11-21T09:13:42.087Z,99.99
2023-11-21T09:14:42.025Z,99.99
2023-11-21T09:15:41.996Z,99.99
2023-11-21T09:16:42.025Z,99.99
2023-11-21T09:17:42.224Z,99.99
2023-11-21T09:18:47.015Z,99.99
2023-11-21T09:19:41.990Z,99.99
2023-11-21T09:20:41.940Z,99.99
2023-11-21T09:21:41.941Z,99.99
2023-11-21T09:22:41.949Z,99.99
2023-11-21T09:23:41.910Z,99.99
2023-11-21T09:24:41.908Z,99.99
2023-11-21T09:25:42.086Z,99.99
2023-11-21T09:26:41.874Z,99.99
2023-11-21T09:27:41.886Z,99.99
2023-11-21T09:28:41.894Z,99.99
2023-11-21T09:29:46.877Z,99.99
2023-11-21T09:30:41.848Z,99.99
2023-11-21T09:31:41.855Z,99.99
2023-11-21T09:32:42.329Z,99.99
2023-11-21T09:33:41.820Z,99.99
2023-11-21T09:34:41.852Z,99.99
2023-11-21T09:35:41.831Z,99.99
2023-11-21T09:36:41.774Z,99.99
2023-11-21T09:37:41.766Z,99.99
2023-11-21T09:38:41.761Z,99.99
2023-11-21T09:39:41.730Z,99.99
2023-11-21T09:40:46.762Z,99.99
2023-11-21T09:41:41.705Z,99.99
2023-11-21T09:42:41.698Z,99.99
2023-11-21T09:43:41.750Z,99.99
2023-11-21T09:44:41.679Z,99.99
2023-11-21T09:45:41.658Z,99.99
2023-11-21T09:46:41.766Z,99.99
2023-11-21T09:47:41.700Z,99.99
2023-11-21T09:48:41.675Z,99.99
2023-11-21T09:49:41.677Z,99.99
2023-11-21T09:50:41.603Z,99.99
2023-11-21T09:51:46.612Z,99.99
2023-11-21T09:52:41.608Z,99.99
2023-11-21T09:53:41.581Z,99.99
2023-11-21T09:54:41.588Z,99.99
2023-11-21T09:55:41.625Z,99.99
2023-11-21T09:56:41.547Z,99.99
2023-11-21T09:57:41.535Z,99.99
2023-11-21T09:58:41.548Z,99.99
2023-11-21T09:59:41.525Z,99.99
2023-11-21T10:00:41.491Z,99.99
2023-11-21T10:01:41.525Z,99.91
2023-11-21T10:02:46.564Z,99.70
2023-11-21T10:03:41.514Z,99.80
2023-11-21T10:04:41.487Z,99.55
2023-11-21T10:05:41.431Z,99.99
2023-11-21T10:06:41.438Z,99.80
2023-11-21T10:07:41.467Z,99.99
2023-11-21T10:08:47.064Z,98.83
2023-11-21T10:09:42.386Z,99.15
2023-11-21T10:10:41.395Z,99.19
2023-11-21T10:11:41.376Z,99.25
2023-11-21T10:12:41.353Z,99.25
2023-11-21T10:13:46.398Z,99.25
2023-11-21T10:14:41.346Z,99.86
2023-11-21T10:15:41.341Z,98.43
2023-11-21T10:16:41.418Z,98.53
2023-11-21T10:17:41.327Z,98.53
2023-11-21T10:18:41.289Z,98.63
2023-11-21T10:19:41.270Z,99.04
2023-11-21T10:20:41.280Z,99.04
2023-11-21T10:21:41.337Z,98.94
2023-11-21T10:22:41.276Z,98.83
2023-11-21T10:23:41.231Z,98.74
2023-11-21T10:24:52.390Z,99.55
2023-11-21T10:25:41.244Z,98.63
2023-11-21T10:26:48.136Z,98.63
2023-11-21T10:27:41.192Z,98.63
2023-11-21T10:28:41.207Z,98.43
2023-11-21T10:29:41.168Z,98.63
2023-11-21T10:30:41.161Z,98.63
2023-11-21T10:31:41.207Z,98.83
2023-11-21T10:32:41.199Z,98.63
2023-11-21T10:33:41.116Z,98.43
2023-11-21T10:34:41.154Z,98.58
2023-11-21T10:35:46.128Z,98.69
2023-11-21T10:36:41.080Z,97.97
2023-11-21T10:37:41.108Z,98.43
2023-11-21T10:38:41.067Z,98.58
2023-11-21T10:39:41.170Z,98.07
2023-11-21T10:40:41.077Z,98.07
2023-11-21T10:41:41.041Z,97.87
2023-11-21T10:42:41.061Z,98.58
2023-11-21T10:43:41.037Z,98.79
2023-11-21T10:44:41.041Z,98.07
2023-11-21T10:45:41.004Z,98.58
2023-11-21T10:46:46.100Z,98.69
2023-11-21T10:47:41.013Z,98.38
2023-11-21T10:48:40.946Z,98.43
2023-11-21T10:49:40.955Z,98.94
2023-11-21T10:50:40.954Z,99.15
2023-11-21T10:51:40.912Z,98.94
2023-11-21T10:52:40.919Z,99.99
2023-11-21T10:53:40.904Z,99.55
2023-11-21T10:54:40.882Z,99.86
2023-11-21T10:55:40.892Z,99.66
2023-11-21T10:56:40.855Z,99.99
2023-11-21T10:57:45.872Z,98.88
2023-11-21T10:58:40.858Z,99.40
2023-11-21T10:59:40.824Z,99.99
2023-11-21T11:00:40.822Z,99.91
2023-11-21T11:01:40.918Z,99.91
2023-11-21T11:02:41.025Z,99.99
2023-11-21T11:03:40.889Z,99.76
2023-11-21T11:04:40.773Z,99.80
2023-11-21T11:05:40.765Z,99.80
2023-11-21T11:06:40.743Z,99.99
2023-11-21T11:07:40.746Z,99.91
2023-11-21T11:08:45.740Z,99.86
2023-11-21T11:09:40.725Z,99.99
2023-11-21T11:10:40.753Z,99.99
2023-11-21T11:11:40.684Z,99.99
2023-11-21T11:12:40.675Z,99.99
2023-11-21T11:13:40.782Z,99.99
2023-11-21T11:14:40.664Z,99.60
2023-11-21T11:15:41.271Z,99.70
2023-11-21T11:16:40.768Z,99.76
2023-11-21T11:17:40.729Z,99.66
2023-11-21T11:18:40.621Z,99.91
2023-11-21T11:19:45.647Z,99.55
2023-11-21T11:20:40.597Z,99.25
2023-11-21T11:21:40.605Z,99.35
2023-11-21T11:22:40.608Z,99.35
2023-11-21T11:23:40.566Z,99.04
2023-11-21T11:24:40.545Z,98.53
2023-11-21T11:25:40.546Z,98.53
2023-11-21T11:26:40.545Z,98.53
2023-11-21T11:27:40.508Z,98.69
2023-11-21T11:28:40.532Z,98.07
2023-11-21T11:29:40.480Z,98.07
2023-11-21T11:30:45.520Z,97.66
2023-11-21T11:31:40.501Z,97.97
2023-11-21T11:32:40.476Z,97.92
2023-11-21T11:33:40.450Z,97.52
2023-11-21T11:34:40.475Z,97.66
2023-11-21T11:35:40.432Z,97.87
2023-11-21T11:36:40.398Z,98.07
2023-11-21T11:37:40.433Z,98.28
2023-11-21T11:38:40.407Z,97.77
2023-11-21T11:39:40.377Z,98.13
2023-11-21T11:40:40.392Z,97.92
2023-11-21T11:41:45.372Z,97.97
2023-11-21T11:42:40.359Z,96.84
2023-11-21T11:43:40.439Z,96.95
2023-11-21T11:44:40.308Z,97.25
2023-11-21T11:45:40.300Z,97.15
2023-11-21T11:46:40.358Z,97.25
2023-11-21T11:47:40.384Z,96.74
2023-11-21T11:48:40.299Z,97.15
2023-11-21T11:49:40.284Z,96.95
2023-11-21T11:50:40.281Z,96.64
2023-11-21T11:51:40.233Z,96.74
2023-11-21T11:52:45.536Z,96.84
2023-11-21T11:53:40.225Z,96.74
2023-11-21T11:54:40.194Z,97.05
2023-11-21T11:55:40.243Z,97.25
2023-11-21T11:56:40.172Z,97.05
2023-11-21T11:57:40.185Z,96.84
2023-11-21T11:58:40.167Z,96.84
2023-11-21T11:59:40.140Z,97.05
2023-11-21T12:00:40.130Z,96.44
2023-11-21T12:01:40.210Z,96.19
2023-11-21T12:02:40.168Z,96.39
2023-11-21T12:03:45.333Z,95.41
2023-11-21T12:04:40.209Z,95.21
2023-11-21T12:05:40.474Z,95.00
2023-11-21T12:06:40.084Z,94.96
2023-11-21T12:07:40.110Z,94.65
2023-11-21T12:08:40.045Z,94.34
2023-11-21T12:09:40.025Z,94.45
2023-11-21T12:10:40.050Z,93.63
2023-11-21T12:11:40.020Z,94.20
2023-11-21T12:12:39.988Z,93.32
2023-11-21T12:13:40.000Z,93.18
2023-11-21T12:14:44.993Z,93.18
2023-11-21T12:15:40.857Z,93.07
2023-11-21T12:16:40.013Z,93.38
2023-11-21T12:17:39.953Z,93.07
2023-11-21T12:18:39.924Z,92.87
2023-11-21T12:19:39.957Z,92.93
2023-11-21T12:20:40.709Z,93.03
2023-11-21T12:21:39.898Z,93.13
2023-11-21T12:22:39.909Z,93.03
2023-11-21T12:23:39.868Z,92.93
2023-11-21T12:24:39.854Z,91.91
2023-11-21T12:25:44.949Z,92.66
2023-11-21T12:26:39.888Z,92.93
2023-11-21T12:27:39.831Z,92.83
2023-11-21T12:28:39.860Z,92.72
2023-11-21T12:29:39.799Z,92.32
2023-11-21T12:30:40.035Z,91.50
2023-11-21T12:31:39.871Z,91.70
2023-11-21T12:32:39.840Z,91.66
2023-11-21T12:33:39.758Z,91.91
2023-11-21T12:34:39.792Z,91.60
2023-11-21T12:35:39.775Z,91.46
2023-11-21T12:36:44.747Z,91.05
2023-11-21T12:37:39.760Z,91.15
2023-11-21T12:38:39.729Z,91.05
2023-11-21T12:39:39.688Z,91.15
2023-11-21T12:40:39.734Z,90.43
2023-11-21T12:41:39.669Z,90.43
2023-11-21T12:42:39.651Z,89.82
2023-11-21T12:43:39.666Z,90.74
2023-11-21T12:44:39.626Z,90.33
2023-11-21T12:45:39.729Z,90.84
2023-11-21T12:46:39.671Z,89.51
2023-11-21T12:47:44.641Z,89.37
2023-11-21T12:48:39.579Z,89.78
2023-11-21T12:49:39.579Z,89.17
2023-11-21T12:50:39.564Z,89.26
2023-11-21T12:51:39.559Z,89.31
2023-11-21T12:52:39.557Z,88.45
2023-11-21T12:53:39.602Z,88.70
2023-11-21T12:54:39.531Z,88.96
2023-11-21T12:55:39.824Z,88.59
2023-11-21T12:56:39.507Z,87.98
2023-11-21T12:57:39.489Z,88.18
2023-11-21T12:58:44.544Z,87.98
2023-11-21T12:59:39.457Z,88.29
2023-11-21T13:00:39.443Z,88.76
2023-11-21T13:01:39.512Z,88.55
2023-11-21T13:02:39.510Z,89.06
2023-11-21T13:03:39.457Z,88.55
2023-11-21T13:04:39.432Z,88.96
2023-11-21T13:05:39.439Z,88.85
2023-11-21T13:06:39.385Z,88.76
2023-11-21T13:07:39.442Z,87.84
2023-11-21T13:08:39.355Z,87.84
2023-11-21T13:09:44.388Z,87.43
2023-11-21T13:10:39.427Z,87.73
2023-11-21T13:11:39.322Z,87.43
2023-11-21T13:12:39.308Z,87.32
2023-11-21T13:13:39.340Z,87.32
2023-11-21T13:14:39.285Z,87.23
2023-11-21T13:15:39.287Z,87.63
2023-11-21T13:16:39.343Z,87.43
2023-11-21T13:17:39.281Z,87.12
2023-11-21T13:18:39.256Z,87.23
2023-11-21T13:19:39.252Z,86.71
2023-11-21T13:20:44.251Z,87.23
2023-11-21T13:21:39.209Z,86.91
2023-11-21T13:22:39.227Z,86.41
2023-11-21T13:23:39.446Z,86.30
2023-11-21T13:24:39.191Z,85.83
2023-11-21T13:25:39.197Z,86.35
2023-11-21T13:26:39.168Z,86.65
2023-11-21T13:27:39.141Z,86.65
2023-11-21T13:28:39.547Z,86.76
2023-11-21T13:29:39.138Z,87.57
2023-11-21T13:30:39.174Z,86.85
2023-11-21T13:31:44.163Z,86.65
2023-11-21T13:32:39.124Z,86.96
2023-11-21T13:33:39.116Z,86.51
2023-11-21T13:34:39.172Z,86.14
2023-11-21T13:35:39.068Z,86.55
2023-11-21T13:36:39.057Z,86.71
2023-11-21T13:37:39.050Z,86.65
2023-11-21T13:38:39.042Z,86.55
2023-11-21T13:39:39.002Z,86.44
2023-11-21T13:40:39.016Z,85.83
2023-11-21T13:41:39.018Z,86.14
2023-11-21T13:42:43.997Z,86.76
2023-11-21T13:43:39.037Z,85.73
2023-11-21T13:44:38.952Z,86.04
2023-11-21T13:45:38.936Z,85.73
2023-11-21T13:46:39.418Z,86.04
2023-11-21T13:47:38.954Z,85.63
2023-11-21T13:48:38.919Z,85.73
2023-11-21T13:49:38.942Z,85.73
2023-11-21T13:50:38.894Z,86.04
2023-11-21T13:51:38.909Z,85.79
2023-11-21T13:52:38.903Z,86.14
2023-11-21T13:53:43.873Z,85.22
2023-11-21T13:54:38.836Z,85.83
2023-11-21T13:55:38.837Z,85.94
2023-11-21T13:56:38.814Z,85.83
2023-11-21T13:57:38.828Z,85.49
2023-11-21T13:58:38.850Z,85.42
2023-11-21T13:59:38.775Z,85.73
2023-11-21T14:00:38.764Z,85.53
2023-11-21T14:01:38.846Z,85.22
2023-11-21T14:02:38.923Z,85.38
2023-11-21T14:03:39.246Z,84.91
2023-11-21T14:04:43.776Z,85.12
2023-11-21T14:05:38.709Z,84.50
2023-11-21T14:06:38.701Z,84.81
2023-11-21T14:07:38.799Z,85.08
2023-11-21T14:08:38.681Z,85.22
2023-11-21T14:09:38.671Z,85.02
2023-11-21T14:10:38.700Z,85.32
2023-11-21T14:11:43.497Z,85.12
2023-11-21T14:12:40.040Z,84.81
2023-11-21T14:13:38.702Z,85.12
2023-11-21T14:14:38.606Z,84.50
2023-11-21T14:15:43.622Z,85.22
2023-11-21T14:16:38.624Z,84.20
2023-11-21T14:17:38.617Z,85.22
2023-11-21T14:18:38.557Z,85.22
2023-11-21T14:19:38.642Z,85.32
2023-11-21T14:20:38.536Z,85.83
2023-11-21T14:21:38.541Z,85.63
2023-11-21T14:22:38.536Z,85.63
2023-11-21T14:23:38.503Z,85.53
2023-11-21T14:24:38.488Z,85.42
2023-11-21T14:25:38.511Z,85.47
2023-11-21T14:26:43.501Z,86.08
2023-11-21T14:27:38.458Z,85.67
2023-11-21T14:28:38.466Z,85.77
2023-11-21T14:29:38.454Z,85.77
2023-11-21T14:30:38.427Z,85.57
2023-11-21T14:31:38.479Z,85.88
2023-11-21T14:32:38.464Z,86.18
2023-11-21T14:33:38.399Z,85.97
2023-11-21T14:34:38.402Z,86.38
2023-11-21T14:35:38.372Z,86.29
2023-11-21T14:36:38.363Z,86.29
2023-11-21T14:37:43.401Z,86.24
2023-11-21T14:38:38.334Z,86.44
2023-11-21T14:39:38.323Z,86.08
2023-11-21T14:40:38.384Z,86.69
2023-11-21T14:41:38.305Z,86.38
2023-11-21T14:42:38.293Z,86.18
2023-11-21T14:43:38.350Z,86.38
2023-11-21T14:44:38.266Z,86.49
2023-11-21T14:45:38.272Z,86.49
2023-11-21T14:46:38.332Z,85.97
2023-11-21T14:47:38.285Z,86.18
2023-11-21T14:48:43.252Z,86.18
2023-11-21T14:49:38.247Z,85.67
2023-11-21T14:50:38.220Z,85.57
2023-11-21T14:51:38.192Z,85.67
2023-11-21T14:52:38.256Z,85.97
2023-11-21T14:53:38.164Z,85.88
2023-11-21T14:54:38.150Z,85.47
2023-11-21T14:55:38.163Z,85.47
2023-11-21T14:56:38.146Z,85.67
2023-11-21T14:57:38.114Z,85.97
2023-11-21T14:58:38.126Z,85.47
2023-11-21T14:59:43.114Z,85.36
2023-11-21T15:00:38.228Z,85.67
2023-11-21T15:01:38.195Z,85.36
2023-11-21T15:02:38.231Z,85.67
2023-11-21T15:03:38.112Z,85.97
2023-11-21T15:04:38.090Z,85.57
2023-11-21T15:05:38.032Z,85.57
2023-11-21T15:06:38.016Z,85.57
2023-11-21T15:07:38.035Z,85.67
2023-11-21T15:08:37.991Z,85.26
2023-11-21T15:09:37.986Z,85.36
2023-11-21T15:10:43.029Z,84.75
2023-11-21T15:11:37.969Z,85.16
2023-11-21T15:12:37.944Z,85.26
2023-11-21T15:13:37.971Z,85.36
2023-11-21T15:14:37.938Z,85.16
2023-11-21T15:15:37.909Z,85.16
2023-11-21T15:16:38.001Z,84.69
2023-11-21T15:17:38.053Z,85.10
2023-11-21T15:18:37.883Z,85.10
2023-11-21T15:19:37.934Z,84.95
2023-11-21T15:20:37.865Z,85.10
2023-11-21T15:21:42.874Z,84.89
2023-11-21T15:22:37.883Z,85.10
2023-11-21T15:23:37.841Z,85.40
2023-11-21T15:24:37.820Z,85.20
2023-11-21T15:25:37.850Z,85.40
2023-11-21T15:26:37.789Z,85.10
2023-11-21T15:27:37.774Z,84.79
2023-11-21T15:28:37.784Z,85.10
2023-11-21T15:29:37.762Z,85.30
2023-11-21T15:30:37.774Z,85.10
2023-11-21T15:31:37.756Z,84.89
2023-11-21T15:32:42.765Z,85.10
2023-11-21T15:33:37.722Z,85.40
2023-11-21T15:34:37.741Z,84.99
2023-11-21T15:35:37.681Z,85.20
2023-11-21T15:36:37.676Z,84.69
2023-11-21T15:37:37.740Z,84.79
2023-11-21T15:38:37.657Z,85.30
2023-11-21T15:39:37.637Z,85.44
2023-11-21T15:40:37.717Z,84.72
2023-11-21T15:41:37.614Z,85.30
2023-11-21T15:42:37.608Z,85.44
2023-11-21T15:43:42.644Z,85.34
2023-11-21T15:44:37.637Z,85.64
2023-11-21T15:45:37.572Z,85.30
2023-11-21T15:46:37.705Z,85.24
2023-11-21T15:47:37.597Z,85.14
2023-11-21T15:48:37.666Z,85.14
2023-11-21T15:49:37.679Z,85.75
2023-11-21T15:50:37.517Z,85.64
2023-11-21T15:51:37.512Z,85.55
2023-11-21T15:52:37.524Z,85.64
2023-11-21T15:53:37.538Z,85.75
2023-11-21T15:54:42.489Z,85.85
2023-11-21T15:55:37.577Z,85.14
2023-11-21T15:56:37.448Z,85.14
2023-11-21T15:57:37.451Z,85.64
2023-11-21T15:58:37.467Z,85.96
2023-11-21T15:59:37.423Z,85.75
2023-11-21T16:00:37.400Z,85.75
2023-11-21T16:01:37.420Z,85.85
2023-11-21T16:02:37.467Z,86.16
2023-11-21T16:03:37.430Z,85.85
2023-11-21T16:04:37.388Z,86.05
2023-11-21T16:05:42.369Z,86.26
2023-11-21T16:06:37.355Z,86.16
2023-11-21T16:07:37.373Z,86.36
2023-11-21T16:08:37.314Z,86.26
2023-11-21T16:09:37.309Z,86.05
2023-11-21T16:10:37.572Z,86.26
2023-11-21T16:11:37.284Z,86.36
2023-11-21T16:12:37.272Z,86.26
2023-11-21T16:13:37.309Z,86.36
2023-11-21T16:14:37.245Z,86.51
2023-11-21T16:15:37.248Z,86.57
2023-11-21T16:16:42.277Z,86.36
2023-11-21T16:17:37.234Z,86.46
2023-11-21T16:18:37.196Z,86.26
2023-11-21T16:19:37.227Z,86.61
2023-11-21T16:20:37.261Z,86.57
2023-11-21T16:21:37.178Z,86.57
2023-11-21T16:22:37.161Z,86.98
2023-11-21T16:23:37.148Z,87.02
2023-11-21T16:24:37.130Z,87.08
2023-11-21T16:25:37.123Z,87.29
2023-11-21T16:26:37.114Z,86.91
2023-11-21T16:27:42.116Z,86.88
2023-11-21T16:28:37.101Z,86.81
2023-11-21T16:29:37.086Z,87.08
2023-11-21T16:30:37.136Z,87.08
2023-11-21T16:31:38.726Z,87.02
2023-11-21T16:32:37.150Z,87.18
2023-11-21T16:33:37.032Z,87.22
2023-11-21T16:34:37.123Z,87.43
2023-11-21T16:35:37.009Z,87.32
2023-11-21T16:36:37.015Z,87.53
2023-11-21T16:37:36.989Z,87.49
2023-11-21T16:38:41.992Z,87.22
2023-11-21T16:39:37.011Z,87.43
2023-11-21T16:40:36.966Z,87.43
2023-11-21T16:41:36.938Z,87.53
2023-11-21T16:42:36.943Z,87.32
2023-11-21T16:43:36.916Z,87.43
2023-11-21T16:44:36.923Z,87.32
2023-11-21T16:45:36.889Z,86.81
2023-11-21T16:46:36.917Z,86.81
2023-11-21T16:47:36.939Z,86.71
2023-11-21T16:48:36.903Z,86.81
2023-11-21T16:49:41.988Z,86.91
2023-11-21T16:50:36.839Z,87.12
2023-11-21T16:51:36.826Z,87.32
2023-11-21T16:52:36.845Z,87.22
2023-11-21T16:53:36.799Z,86.91
2023-11-21T16:54:36.813Z,87.02
2023-11-21T16:55:36.774Z,86.91
2023-11-21T16:56:36.767Z,87.02
2023-11-21T16:57:37.065Z,86.91
2023-11-21T16:58:36.759Z,86.81
2023-11-21T16:59:36.743Z,86.71
2023-11-21T17:00:41.750Z,87.12
2023-11-21T17:01:36.707Z,87.12
2023-11-21T17:02:36.850Z,86.81
2023-11-21T17:03:36.738Z,87.32
2023-11-21T17:04:36.682Z,87.12
2023-11-21T17:05:36.660Z,86.91
2023-11-21T17:06:36.649Z,87.12
2023-11-21T17:07:36.646Z,87.02
2023-11-21T17:08:36.657Z,86.30
2023-11-21T17:09:36.632Z,86.30
2023-11-21T17:10:36.605Z,86.30
2023-11-21T17:11:41.622Z,86.30
2023-11-21T17:12:36.585Z,86.61
2023-11-21T17:13:36.587Z,86.61
2023-11-21T17:14:36.562Z,86.61
2023-11-21T17:15:36.560Z,86.61
2023-11-21T17:16:36.576Z,86.61
2023-11-21T17:17:36.600Z,86.51
2023-11-21T17:18:36.582Z,86.71
2023-11-21T17:19:36.503Z,86.91
2023-11-21T17:20:36.496Z,87.12
2023-11-21T17:21:36.494Z,87.73
2023-11-21T17:22:41.604Z,87.53
2023-11-21T17:23:36.471Z,88.04
2023-11-21T17:24:36.468Z,87.63
2023-11-21T17:25:36.442Z,87.84
2023-11-21T17:26:36.429Z,88.04
2023-11-21T17:27:36.457Z,88.14
2023-11-21T17:28:36.401Z,87.84
2023-11-21T17:29:36.427Z,87.94
2023-11-21T17:30:36.385Z,87.84
2023-11-21T17:31:36.385Z,87.94
2023-11-21T17:32:36.742Z,88.04
2023-11-21T17:33:41.379Z,88.04
2023-11-21T17:34:36.344Z,88.14
2023-11-21T17:35:36.320Z,87.84
2023-11-21T17:36:36.319Z,88.04
2023-11-21T17:37:36.309Z,88.45
2023-11-21T17:38:36.296Z,88.45
2023-11-21T17:39:36.284Z,88.24
2023-11-21T17:40:36.286Z,88.14
2023-11-21T17:41:36.266Z,88.56
2023-11-21T17:42:36.261Z,88.35
2023-11-21T17:43:36.233Z,88.35
2023-11-21T17:44:41.244Z,88.35
2023-11-21T17:45:36.222Z,88.24
2023-11-21T17:46:36.231Z,88.24
2023-11-21T17:47:36.263Z,87.94
2023-11-21T17:48:36.175Z,88.24
2023-11-21T17:49:36.165Z,88.35
2023-11-21T17:50:36.153Z,88.35
2023-11-21T17:51:36.173Z,88.08
2023-11-21T17:52:36.132Z,88.65
2023-11-21T17:53:36.131Z,88.59
2023-11-21T17:54:36.112Z,88.29
2023-11-21T17:55:41.229Z,88.18
2023-11-21T17:56:36.122Z,88.29
2023-11-21T17:57:36.087Z,88.80
2023-11-21T17:58:36.059Z,89.00
2023-11-21T17:59:36.050Z,88.90
2023-11-21T18:00:36.115Z,89.21
2023-11-21T18:01:36.111Z,89.36
2023-11-21T18:02:38.550Z,89.42
2023-11-21T18:03:36.088Z,89.45
2023-11-21T18:04:36.037Z,89.83
2023-11-21T18:05:36.016Z,89.66
2023-11-21T18:06:40.991Z,89.66
2023-11-21T18:07:35.961Z,90.13
2023-11-21T18:08:36.031Z,90.07
2023-11-21T18:09:35.961Z,90.23
2023-11-21T18:10:35.951Z,91.16
2023-11-21T18:11:35.937Z,90.95
2023-11-21T18:12:35.906Z,91.09
2023-11-21T18:13:35.893Z,90.69
2023-11-21T18:14:35.892Z,91.40
2023-11-21T18:15:35.903Z,91.20
2023-11-21T18:16:35.900Z,91.71
2023-11-21T18:17:40.884Z,91.82
2023-11-21T18:18:35.836Z,91.82
2023-11-21T18:19:35.836Z,92.12
2023-11-21T18:20:35.813Z,92.63
2023-11-21T18:21:35.816Z,93.04
2023-11-21T18:22:35.790Z,92.32
2023-11-21T18:23:35.782Z,92.74
2023-11-21T18:24:35.785Z,93.15
2023-11-21T18:25:35.758Z,93.25
2023-11-21T18:26:35.759Z,93.04
2023-11-21T18:27:35.758Z,93.15
2023-11-21T18:28:40.757Z,93.35
2023-11-21T18:29:35.724Z,93.35
2023-11-21T18:30:35.697Z,93.55
2023-11-21T18:31:35.748Z,93.39
2023-11-21T18:32:35.740Z,93.45
2023-11-21T18:33:35.717Z,93.86
2023-11-21T18:34:35.659Z,93.76
2023-11-21T18:35:35.649Z,93.76
2023-11-21T18:36:35.633Z,93.86
2023-11-21T18:37:35.620Z,93.90
2023-11-21T18:38:35.618Z,94.37
2023-11-21T18:39:40.635Z,94.01
2023-11-21T18:40:35.582Z,94.17
2023-11-21T18:41:35.599Z,94.01
2023-11-21T18:42:35.571Z,93.96
2023-11-21T18:43:35.597Z,94.11
2023-11-21T18:44:44.436Z,94.21
2023-11-21T18:45:35.570Z,93.86
2023-11-21T18:46:35.516Z,94.11
2023-11-21T18:47:35.544Z,93.70
2023-11-21T18:48:35.494Z,94.01
2023-11-21T18:49:35.497Z,93.90
2023-11-21T18:50:40.493Z,94.01
2023-11-21T18:51:35.469Z,93.90
2023-11-21T18:52:35.463Z,93.49